Salem, Michigan
Current Conditions -  °F | °C
As of 10:53 AM on Friday 24 Oct 2014 (Local Time) from KARB Reporting Station
Clear Clear  
Wind Chill: 52°   Ceiling: Unl
Heat Index: 52°   Visibility: 9mi
Dew Point: 41°   Wind: 6mph
Humidity: 66%   Direction: 260°W
Pressure: 30.08"   Gusts: NA
Location:  42.41°N, 83.58°W
Report Text: KARB 241453Z 26005KT 9SM CLR 11/05 A3008 RMK AO2 SLP191 T01110050 50000
Loading
Personal Weather Stations






























Interactive Weather Map New forecast layout! Learn more

10-Day Weather Forecast

Advertisements
Track Severe Weather on mobile